MAPA DE AEROPUERTO

INFORMACIÓN METAR y TAF

METAR FOR LEVC
ADDS - METARS form results

(2258 UTC 14 July 2020)
Data provider http://aviationweather.gov/metar/data/
 
METAR text: LEVC 142230Z 29001KT CAVOK 21/20 Q1016 NOSIG
Conditions at: LEVC (VALENCIA (CIV/MI, ES) observed 2230 UTC 14 July 2020
Temperature: 21.0°C (70°F)
Dewpoint: 20.0°C (68°F) [RH = 94%]
Pressure (altimeter): 30.00 inches Hg (1016.0 mb)
Winds: from the WNW (290 degrees) at 1 MPH (1 knots; 0.5 m/s)
Visibility: 6 or more miles (10+ km)
Ceiling: ceiling and visibility are OK
Clouds: unknown
Weather: no significant weather observed at this time

METAR text: LEVC 142200Z VRB01KT CAVOK 21/19 Q1016 NOSIG
Conditions at: LEVC (VALENCIA (CIV/MI, ES) observed 2200 UTC 14 July 2020
Temperature: 21.0°C (70°F)
Dewpoint: 19.0°C (66°F) [RH = 88%]
Pressure (altimeter): 30.00 inches Hg (1016.0 mb)
Winds: variable direction winds at 1 MPH (1 knots; 0.5 m/s)
Visibility: 6 or more miles (10+ km)
Ceiling: ceiling and visibility are OK
Clouds: unknown
Weather: no significant weather observed at this time

Forecast for: LEVC (VALENCIA (CIV/MI, ES)
Text: TAF LEVC 141700Z 1418/1518 30006KT 9999 SCT020 TX29/1512Z TN20/1506Z
Forecast period: 1800 UTC 14 July 2020 to 1800 UTC 15 July 2020
Forecast type: FROM: standard forecast or significant change
Winds: from the WNW (300 degrees) at 7 MPH (6 knots; 3.1 m/s)
Visibility: 6 or more miles 10+ km)
Ceiling: at least 12,000 feet AGL
Clouds: scattered clouds at 2000 feet AGL
Weather: no significant weather forecast for this period
Text: TEMPO 1418/1421 VRB10G20KT 3000 TSRA FEW030CB
Forecast period: 1800 to 2100 UTC 14 July 2020
Forecast type: TEMPORARY: The following changes expected for less than half the time period
Winds: variable direction winds at 12 MPH (10 knots; 5.1 m/s)
gusting to 23 MPH (20 knots; 10.3 m/s)
Visibility: 1.86 miles (2.99 km)
Ceiling: at least 12,000 feet AGL
Clouds: few clouds at 3000 feet AGL
Weather: TSRA  (rain associated with thunderstorm(s))
Text: BECMG 1418/1420 VRB04KT
Forecast period: 1800 UTC 14 July 2020 to 1400 UTC 15 July 2020
Forecast type: BECOMING: Conditions expected to become as follows by 2000 UTC 14 July 2020
Winds: variable direction winds at 5 MPH (4 knots; 2.1 m/s)
Visibility: 6 or more miles 10+ km)
Ceiling: at least 12,000 feet AGL
Clouds: scattered clouds at 2000 feet AGL
Weather: no significant weather forecast for this period
Text: BECMG 1514/1516 13006KT
Forecast period: 1400 to 1800 UTC 15 July 2020
Forecast type: BECOMING: Conditions expected to become as follows by 1600 UTC 15 July 2020
Winds: from the SE (130 degrees) at 7 MPH (6 knots; 3.1 m/s)
Visibility: 6 or more miles 10+ km)
Ceiling: at least 12,000 feet AGL
Clouds: scattered clouds at 2000 feet AGL
Weather: no significant weather forecast for this period